PWSweather.com
Personal Weather Stations
Station Observations
SHAHALMS1
Eftra, Falkenberg, HA

EftraFalkenberg, HA

Lat: 56.85, Lon: 12.65

Elevation: 140

Station Type:

http://hem.passagen.se/risarp101

High Low Average
Temperature 61.7°F16.5°C 54.1°F12.3°C 57.5°F14.2°C
Dew Point 58.5°F14.7°C 47.1°F8.4°C 52.3°F11.3°C
Winds 11.8 mph 19.0 kmh Calm Calm 5.0 mph WSW8.0 kmh WSW
Wind Gusts 24.7 mph39.8 kmh -- 13.0 mph20.9 kmh
Humidity 95% 64% 83%
Pressure 29.89 in1012.2 mb 29.62 in1003.0 mb -
Precipitation 1.20 in30.5 mm - -
Hour Temp Dew Point Humidity Winds Wind Gusts Pressure Precip Precip Rate Daily Precip Total
12:00 AM 59.4°F15.2°C 57.6°F14.2°C 94% 3.1 mph S5.0 kmh S 11.8 mph19.0 kmh 29.68 in1005.1 mb 0.24 in6.1 mm 0.00 in0.0 mm 0.24 in6.1 mm
12:10 AM 59.4°F15.2°C 57.9°F14.4°C 95% 5.9 mph S9.5 kmh S 15.7 mph25.3 kmh 29.65 in1004.1 mb 0.24 in6.1 mm 0.00 in0.0 mm 0.24 in6.1 mm
12:20 AM 59.5°F15.3°C 58.1°F14.5°C 95% 6.3 mph S10.1 kmh S 15.4 mph24.8 kmh 29.65 in1004.1 mb 0.24 in6.1 mm 0.00 in0.0 mm 0.24 in6.1 mm
12:30 AM 59.7°F15.4°C 58.3°F14.6°C 95% 6.7 mph S10.8 kmh S 20.0 mph32.2 kmh 29.65 in1004.1 mb 0.38 in9.7 mm 0.84 in21.3 mm 0.38 in9.7 mm
12:40 AM 59.9°F15.5°C 58.5°F14.7°C 95% 7.0 mph S11.3 kmh S 20.0 mph32.2 kmh 29.65 in1004.1 mb 0.38 in9.7 mm 0.00 in0.0 mm 0.44 in11.2 mm
12:50 AM 59.7°F15.4°C 58.3°F14.6°C 95% 3.8 mph SW6.1 kmh SW 10.4 mph16.7 kmh 29.65 in1004.1 mb 0.43 in10.9 mm 0.30 in7.6 mm 0.57 in14.5 mm
01:00 AM 59.4°F15.2°C 57.9°F14.4°C 95% 3.1 mph SW5.0 kmh SW 9.3 mph15.0 kmh 29.65 in1004.1 mb 0.43 in10.9 mm 0.00 in0.0 mm 0.67 in17.0 mm
01:10 AM 59.0°F15.0°C 57.6°F14.2°C 95% 1.9 mph SW3.1 kmh SW 6.4 mph10.3 kmh 29.65 in1004.1 mb 0.53 in13.5 mm 0.60 in15.2 mm 0.77 in19.6 mm
01:20 AM 58.8°F14.9°C 57.1°F13.9°C 94% 1.7 mph W2.7 kmh W 7.5 mph12.1 kmh 29.65 in1004.1 mb 0.53 in13.5 mm 0.00 in0.0 mm 0.82 in20.8 mm
01:30 AM 58.5°F14.7°C 56.7°F13.7°C 94% 0.7 mph WNW1.1 kmh WNW 6.8 mph10.9 kmh 29.65 in1004.1 mb 0.44 in11.2 mm 0.00 in0.0 mm 0.82 in20.8 mm
01:40 AM 58.1°F14.5°C 56.4°F13.6°C 94% Calm Calm -- 29.62 in1003.0 mb 0.38 in9.7 mm 0.00 in0.0 mm 0.82 in20.8 mm
01:50 AM 57.9°F14.4°C 56.2°F13.4°C 94% 1.1 mph W1.8 kmh W 4.3 mph6.9 kmh 29.62 in1003.0 mb 0.24 in6.1 mm 0.00 in0.0 mm 0.82 in20.8 mm
02:00 AM 57.7°F14.3°C 56.0°F13.3°C 94% Calm Calm -- 29.65 in1004.1 mb 0.15 in3.8 mm 0.00 in0.0 mm 0.82 in20.8 mm
02:10 AM 57.7°F14.3°C 56.0°F13.3°C 94% 0.1 mph S0.2 kmh S 2.1 mph3.4 kmh 29.65 in1004.1 mb 0.05 in1.3 mm 0.00 in0.0 mm 0.82 in20.8 mm
02:20 AM 57.7°F14.3°C 56.0°F13.3°C 94% 0.5 mph W0.8 kmh W 5.0 mph8.0 kmh 29.65 in1004.1 mb 0.00 in0.0 mm 0.00 in0.0 mm 0.82 in20.8 mm
02:30 AM 57.6°F14.2°C 55.8°F13.2°C 94% 1.8 mph WNW2.9 kmh WNW 10.0 mph16.1 kmh 29.65 in1004.1 mb 0.00 in0.0 mm 0.00 in0.0 mm 0.82 in20.8 mm
02:40 AM 57.6°F14.2°C 55.8°F13.2°C 94% 2.4 mph W3.9 kmh W 8.6 mph13.8 kmh 29.65 in1004.1 mb 0.05 in1.3 mm 0.30 in7.6 mm 0.86 in21.8 mm
02:50 AM 57.6°F14.2°C 55.8°F13.2°C 94% 1.8 mph W2.9 kmh W 7.5 mph12.1 kmh 29.65 in1004.1 mb 0.05 in1.3 mm 0.00 in0.0 mm 0.86 in21.8 mm
03:00 AM 57.6°F14.2°C 55.8°F13.2°C 94% 1.4 mph W2.3 kmh W 6.1 mph9.8 kmh 29.65 in1004.1 mb 0.05 in1.3 mm 0.00 in0.0 mm 0.86 in21.8 mm
03:10 AM 57.4°F14.1°C 55.7°F13.2°C 94% 3.6 mph W5.8 kmh W 12.9 mph20.8 kmh 29.65 in1004.1 mb 0.05 in1.3 mm 0.00 in0.0 mm 0.86 in21.8 mm
03:20 AM 57.4°F14.1°C 55.7°F13.2°C 94% 3.3 mph W5.3 kmh W 10.7 mph17.2 kmh 29.65 in1004.1 mb 0.05 in1.3 mm 0.00 in0.0 mm 0.86 in21.8 mm
03:30 AM 57.2°F14.0°C 55.5°F13.1°C 94% 1.6 mph W2.6 kmh W 7.9 mph12.7 kmh 29.65 in1004.1 mb 0.05 in1.3 mm 0.00 in0.0 mm 0.86 in21.8 mm
03:40 AM 57.2°F14.0°C 55.5°F13.1°C 94% 1.1 mph WNW1.8 kmh WNW 9.3 mph15.0 kmh 29.68 in1005.1 mb 0.00 in0.0 mm 0.00 in0.0 mm 0.86 in21.8 mm
03:50 AM 57.0°F13.9°C 55.3°F12.9°C 94% 1.9 mph W3.1 kmh W 6.4 mph10.3 kmh 29.68 in1005.1 mb 0.00 in0.0 mm 0.00 in0.0 mm 0.86 in21.8 mm
04:00 AM 56.8°F13.8°C 55.1°F12.8°C 94% 1.4 mph WSW2.3 kmh WSW 6.1 mph9.8 kmh 29.65 in1004.1 mb 0.00 in0.0 mm 0.00 in0.0 mm 0.86 in21.8 mm
04:10 AM 56.7°F13.7°C 55.0°F12.8°C 94% 2.4 mph WSW3.9 kmh WSW 6.1 mph9.8 kmh 29.68 in1005.1 mb 0.00 in0.0 mm 0.00 in0.0 mm 0.86 in21.8 mm
04:20 AM 56.8°F13.8°C 55.1°F12.8°C 94% 1.1 mph WSW1.8 kmh WSW 4.7 mph7.6 kmh 29.68 in1005.1 mb 0.00 in0.0 mm 0.00 in0.0 mm 0.86 in21.8 mm
04:30 AM 56.8°F13.8°C 55.1°F12.8°C 94% 2.0 mph WSW3.2 kmh WSW 6.4 mph10.3 kmh 29.68 in1005.1 mb 0.00 in0.0 mm 0.00 in0.0 mm 0.86 in21.8 mm
04:40 AM 56.8°F13.8°C 55.1°F12.8°C 94% 2.2 mph WSW3.5 kmh WSW 5.7 mph9.2 kmh 29.68 in1005.1 mb 0.00 in0.0 mm 0.00 in0.0 mm 0.86 in21.8 mm
04:50 AM 56.8°F13.8°C 55.1°F12.8°C 94% 1.8 mph W2.9 kmh W 5.7 mph9.2 kmh 29.68 in1005.1 mb 0.00 in0.0 mm 0.00 in0.0 mm 0.86 in21.8 mm
05:00 AM 56.8°F13.8°C 55.1°F12.8°C 94% 3.6 mph WSW5.8 kmh WSW 7.5 mph12.1 kmh 29.68 in1005.1 mb 0.00 in0.0 mm 0.00 in0.0 mm 0.86 in21.8 mm
05:10 AM 56.7°F13.7°C 55.0°F12.8°C 94% 3.9 mph WSW6.3 kmh WSW 11.8 mph19.0 kmh 29.68 in1005.1 mb 0.00 in0.0 mm 0.00 in0.0 mm 0.86 in21.8 mm
05:20 AM 56.5°F13.6°C 54.5°F12.5°C 93% 3.7 mph W6.0 kmh W 9.7 mph15.6 kmh 29.68 in1005.1 mb 0.00 in0.0 mm 0.00 in0.0 mm 0.86 in21.8 mm
05:30 AM 56.3°F13.5°C 54.3°F12.4°C 93% 4.6 mph W7.4 kmh W 11.8 mph19.0 kmh 29.68 in1005.1 mb 0.00 in0.0 mm 0.00 in0.0 mm 0.86 in21.8 mm
05:40 AM 55.8°F13.2°C 53.8°F12.1°C 93% 3.9 mph W6.3 kmh W 9.3 mph15.0 kmh 29.68 in1005.1 mb 0.00 in0.0 mm 0.00 in0.0 mm 0.86 in21.8 mm
05:50 AM 55.6°F13.1°C 53.3°F11.8°C 92% 3.2 mph WSW5.1 kmh WSW 9.7 mph15.6 kmh 29.68 in1005.1 mb 0.00 in0.0 mm 0.00 in0.0 mm 0.86 in21.8 mm
06:00 AM 55.4°F13.0°C 53.1°F11.7°C 92% 3.0 mph WSW4.8 kmh WSW 7.5 mph12.1 kmh 29.68 in1005.1 mb 0.00 in0.0 mm 0.00 in0.0 mm 0.86 in21.8 mm
06:10 AM 55.4°F13.0°C 53.1°F11.7°C 92% 3.0 mph SW4.8 kmh SW 6.8 mph10.9 kmh 29.68 in1005.1 mb 0.00 in0.0 mm 0.00 in0.0 mm 0.86 in21.8 mm
06:20 AM 55.2°F12.9°C 52.9°F11.6°C 92% 3.4 mph WSW5.5 kmh WSW 8.9 mph14.3 kmh 29.68 in1005.1 mb 0.00 in0.0 mm 0.00 in0.0 mm 0.86 in21.8 mm
06:30 AM 55.0°F12.8°C 52.8°F11.6°C 92% 4.6 mph WSW7.4 kmh WSW 9.3 mph15.0 kmh 29.68 in1005.1 mb 0.00 in0.0 mm 0.00 in0.0 mm 0.86 in21.8 mm
06:40 AM 55.2°F12.9°C 52.9°F11.6°C 92% 3.7 mph WSW6.0 kmh WSW 8.9 mph14.3 kmh 29.71 in1006.1 mb 0.00 in0.0 mm 0.00 in0.0 mm 0.86 in21.8 mm
06:50 AM 55.4°F13.0°C 53.1°F11.7°C 92% 5.3 mph W8.5 kmh W 12.2 mph19.6 kmh 29.71 in1006.1 mb 0.00 in0.0 mm 0.00 in0.0 mm 0.86 in21.8 mm
07:00 AM 55.6°F13.1°C 53.3°F11.8°C 92% 5.1 mph WSW8.2 kmh WSW 11.8 mph19.0 kmh 29.71 in1006.1 mb 0.00 in0.0 mm 0.00 in0.0 mm 0.86 in21.8 mm
07:10 AM 55.8°F13.2°C 53.5°F11.9°C 92% 5.5 mph W8.9 kmh W 13.6 mph21.9 kmh 29.71 in1006.1 mb 0.00 in0.0 mm 0.00 in0.0 mm 0.86 in21.8 mm
07:20 AM 56.3°F13.5°C 53.7°F12.1°C 91% 4.3 mph WSW6.9 kmh WSW 8.9 mph14.3 kmh 29.71 in1006.1 mb 0.00 in0.0 mm 0.00 in0.0 mm 0.86 in21.8 mm
07:30 AM 56.5°F13.6°C 53.9°F12.2°C 91% 5.3 mph W8.5 kmh W 16.8 mph27.0 kmh 29.71 in1006.1 mb 0.00 in0.0 mm 0.00 in0.0 mm 0.86 in21.8 mm
07:40 AM 56.5°F13.6°C 53.3°F11.8°C 89% 5.4 mph WSW8.7 kmh WSW 13.6 mph21.9 kmh 29.71 in1006.1 mb 0.00 in0.0 mm 0.00 in0.0 mm 0.86 in21.8 mm
07:50 AM 57.0°F13.9°C 53.5°F11.9°C 88% 6.0 mph W9.7 kmh W 12.2 mph19.6 kmh 29.71 in1006.1 mb 0.00 in0.0 mm 0.00 in0.0 mm 0.86 in21.8 mm
08:00 AM 57.2°F14.0°C 53.4°F11.9°C 87% 5.6 mph WSW9.0 kmh WSW 13.6 mph21.9 kmh 29.71 in1006.1 mb 0.00 in0.0 mm 0.00 in0.0 mm 0.86 in21.8 mm
08:10 AM 57.7°F14.3°C 53.9°F12.2°C 87% 4.9 mph SW7.9 kmh SW 12.9 mph20.8 kmh 29.71 in1006.1 mb 0.00 in0.0 mm 0.00 in0.0 mm 0.86 in21.8 mm
08:20 AM 58.3°F14.6°C 53.8°F12.1°C 85% 5.6 mph WSW9.0 kmh WSW 12.2 mph19.6 kmh 29.71 in1006.1 mb 0.00 in0.0 mm 0.00 in0.0 mm 0.86 in21.8 mm
08:30 AM 59.0°F15.0°C 53.8°F12.1°C 83% 5.0 mph SW8.0 kmh SW 12.2 mph19.6 kmh 29.71 in1006.1 mb 0.00 in0.0 mm 0.00 in0.0 mm 0.86 in21.8 mm
08:40 AM 59.5°F15.3°C 53.7°F12.1°C 81% 5.4 mph SW8.7 kmh SW 12.2 mph19.6 kmh 29.74 in1007.1 mb 0.00 in0.0 mm 0.00 in0.0 mm 0.86 in21.8 mm
08:50 AM 59.4°F15.2°C 53.2°F11.8°C 80% 5.9 mph WSW9.5 kmh WSW 10.0 mph16.1 kmh 29.74 in1007.1 mb 0.00 in0.0 mm 0.00 in0.0 mm 0.86 in21.8 mm
09:00 AM 59.5°F15.3°C 53.0°F11.7°C 79% 4.3 mph SW6.9 kmh SW 9.7 mph15.6 kmh 29.71 in1006.1 mb 0.00 in0.0 mm 0.00 in0.0 mm 0.86 in21.8 mm
09:10 AM 59.2°F15.1°C 52.7°F11.5°C 79% 5.3 mph WSW8.5 kmh WSW 16.5 mph26.6 kmh 29.71 in1006.1 mb 0.00 in0.0 mm 0.00 in0.0 mm 0.86 in21.8 mm
09:20 AM 59.0°F15.0°C 52.5°F11.4°C 79% 3.9 mph WSW6.3 kmh WSW 12.2 mph19.6 kmh 29.71 in1006.1 mb 0.00 in0.0 mm 0.00 in0.0 mm 0.86 in21.8 mm
09:30 AM 59.0°F15.0°C 52.5°F11.4°C 79% 2.0 mph W3.2 kmh W 5.7 mph9.2 kmh 29.71 in1006.1 mb 0.00 in0.0 mm 0.00 in0.0 mm 0.86 in21.8 mm
09:40 AM 58.1°F14.5°C 51.6°F10.9°C 79% 2.7 mph W4.3 kmh W 10.4 mph16.7 kmh 29.71 in1006.1 mb 0.05 in1.3 mm 0.30 in7.6 mm 0.91 in23.1 mm
09:50 AM 56.8°F13.8°C 50.7°F10.4°C 80% 5.0 mph SW8.0 kmh SW 12.5 mph20.1 kmh 29.71 in1006.1 mb 0.14 in3.6 mm 0.54 in13.7 mm 1.00 in25.4 mm
10:00 AM 55.8°F13.2°C 50.3°F10.2°C 82% 5.3 mph S8.5 kmh S 11.8 mph19.0 kmh 29.68 in1005.1 mb 0.14 in3.6 mm 0.00 in0.0 mm 1.00 in25.4 mm
10:10 AM 55.4°F13.0°C 50.3°F10.2°C 83% 4.5 mph S7.2 kmh S 10.4 mph16.7 kmh 29.71 in1006.1 mb 0.14 in3.6 mm 0.00 in0.0 mm 1.00 in25.4 mm
10:20 AM 55.4°F13.0°C 50.6°F10.3°C 84% 4.0 mph S6.4 kmh S 11.5 mph18.5 kmh 29.71 in1006.1 mb 0.14 in3.6 mm 0.00 in0.0 mm 1.00 in25.4 mm
10:30 AM 55.4°F13.0°C 51.0°F10.6°C 85% 3.4 mph S5.5 kmh S 10.0 mph16.1 kmh 29.71 in1006.1 mb 0.14 in3.6 mm 0.00 in0.0 mm 1.00 in25.4 mm
10:40 AM 55.8°F13.2°C 51.6°F10.9°C 86% 2.6 mph S4.2 kmh S 6.8 mph10.9 kmh 29.71 in1006.1 mb 0.09 in2.3 mm 0.00 in0.0 mm 1.00 in25.4 mm
10:50 AM 55.9°F13.3°C 52.1°F11.2°C 87% 3.6 mph SSE5.8 kmh SSE 10.4 mph16.7 kmh 29.71 in1006.1 mb 0.00 in0.0 mm 0.00 in0.0 mm 1.00 in25.4 mm
11:00 AM 56.7°F13.7°C 53.1°F11.7°C 88% 4.1 mph S6.6 kmh S 10.4 mph16.7 kmh 29.71 in1006.1 mb 0.00 in0.0 mm 0.00 in0.0 mm 1.00 in25.4 mm
11:10 AM 57.4°F14.1°C 54.2°F12.3°C 89% 4.5 mph S7.2 kmh S 14.0 mph22.5 kmh 29.71 in1006.1 mb 0.00 in0.0 mm 0.00 in0.0 mm 1.00 in25.4 mm
11:20 AM 58.3°F14.6°C 55.4°F13.0°C 90% 2.8 mph SW4.5 kmh SW 8.6 mph13.8 kmh 29.71 in1006.1 mb 0.00 in0.0 mm 0.00 in0.0 mm 1.00 in25.4 mm
11:30 AM 58.6°F14.8°C 55.7°F13.2°C 90% 3.6 mph WSW5.8 kmh WSW 11.8 mph19.0 kmh 29.71 in1006.1 mb 0.00 in0.0 mm 0.00 in0.0 mm 1.00 in25.4 mm
11:40 AM 59.0°F15.0°C 55.8°F13.2°C 89% 4.0 mph WSW6.4 kmh WSW 10.0 mph16.1 kmh 29.71 in1006.1 mb 0.00 in0.0 mm 0.00 in0.0 mm 1.00 in25.4 mm
11:50 AM 59.7°F15.4°C 56.5°F13.6°C 89% 5.4 mph WSW8.7 kmh WSW 15.4 mph24.8 kmh 29.71 in1006.1 mb 0.00 in0.0 mm 0.00 in0.0 mm 1.00 in25.4 mm
12:00 PM 59.9°F15.5°C 56.3°F13.5°C 88% 4.6 mph W7.4 kmh W 12.5 mph20.1 kmh 29.71 in1006.1 mb 0.00 in0.0 mm 0.00 in0.0 mm 1.00 in25.4 mm
12:10 PM 59.7°F15.4°C 55.5°F13.1°C 86% 6.2 mph WSW10.0 kmh WSW 12.5 mph20.1 kmh 29.71 in1006.1 mb 0.00 in0.0 mm 0.00 in0.0 mm 1.00 in25.4 mm
12:20 PM 59.5°F15.3°C 54.7°F12.6°C 84% 4.2 mph W6.8 kmh W 10.4 mph16.7 kmh 29.71 in1006.1 mb 0.00 in0.0 mm 0.00 in0.0 mm 1.00 in25.4 mm
12:30 PM 59.5°F15.3°C 54.7°F12.6°C 84% 4.8 mph WSW7.7 kmh WSW 12.2 mph19.6 kmh 29.71 in1006.1 mb 0.00 in0.0 mm 0.00 in0.0 mm 1.00 in25.4 mm
12:40 PM 60.1°F15.6°C 54.9°F12.7°C 83% 5.8 mph W9.3 kmh W 14.0 mph22.5 kmh 29.71 in1006.1 mb 0.00 in0.0 mm 0.00 in0.0 mm 1.00 in25.4 mm
12:50 PM 60.4°F15.8°C 55.3°F12.9°C 83% 5.7 mph W9.2 kmh W 15.4 mph24.8 kmh 29.71 in1006.1 mb 0.00 in0.0 mm 0.00 in0.0 mm 1.00 in25.4 mm
01:00 PM 61.0°F16.1°C 55.4°F13.0°C 82% 5.1 mph WSW8.2 kmh WSW 12.9 mph20.8 kmh 29.71 in1006.1 mb 0.00 in0.0 mm 0.00 in0.0 mm 1.00 in25.4 mm
01:10 PM 60.8°F16.0°C 54.2°F12.3°C 79% 4.5 mph W7.2 kmh W 9.7 mph15.6 kmh 29.71 in1006.1 mb 0.00 in0.0 mm 0.00 in0.0 mm 1.00 in25.4 mm
01:20 PM 60.4°F15.8°C 53.2°F11.8°C 77% 5.1 mph W8.2 kmh W 11.8 mph19.0 kmh 29.71 in1006.1 mb 0.00 in0.0 mm 0.00 in0.0 mm 1.00 in25.4 mm
01:30 PM 60.6°F15.9°C 53.0°F11.7°C 76% 5.9 mph W9.5 kmh W 14.0 mph22.5 kmh 29.71 in1006.1 mb 0.00 in0.0 mm 0.00 in0.0 mm 1.00 in25.4 mm
01:40 PM 60.8°F16.0°C 52.8°F11.6°C 75% 5.1 mph WSW8.2 kmh WSW 12.5 mph20.1 kmh 29.71 in1006.1 mb 0.00 in0.0 mm 0.00 in0.0 mm 1.00 in25.4 mm
01:50 PM 61.2°F16.2°C 53.5°F11.9°C 76% 5.8 mph WSW9.3 kmh WSW 14.0 mph22.5 kmh 29.71 in1006.1 mb 0.00 in0.0 mm 0.00 in0.0 mm 1.00 in25.4 mm
02:00 PM 61.7°F16.5°C 53.7°F12.1°C 75% 6.5 mph W10.5 kmh W 20.4 mph32.8 kmh 29.68 in1005.1 mb 0.00 in0.0 mm 0.00 in0.0 mm 1.00 in25.4 mm
02:10 PM 61.3°F16.3°C 52.6°F11.4°C 73% 5.1 mph W8.2 kmh W 14.3 mph23.0 kmh 29.71 in1006.1 mb 0.00 in0.0 mm 0.00 in0.0 mm 1.00 in25.4 mm
02:20 PM 60.8°F16.0°C 52.1°F11.2°C 73% 6.2 mph WSW10.0 kmh WSW 12.9 mph20.8 kmh 29.71 in1006.1 mb 0.00 in0.0 mm 0.00 in0.0 mm 1.00 in25.4 mm
02:30 PM 60.8°F16.0°C 52.5°F11.4°C 74% 4.2 mph WNW6.8 kmh WNW 10.4 mph16.7 kmh 29.71 in1006.1 mb 0.00 in0.0 mm 0.00 in0.0 mm 1.00 in25.4 mm
02:40 PM 60.6°F15.9°C 51.9°F11.1°C 73% 6.5 mph W10.5 kmh W 17.5 mph28.2 kmh 29.71 in1006.1 mb 0.00 in0.0 mm 0.00 in0.0 mm 1.00 in25.4 mm
02:50 PM 61.0°F16.1°C 52.3°F11.3°C 73% 5.9 mph W9.5 kmh W 15.7 mph25.3 kmh 29.71 in1006.1 mb 0.00 in0.0 mm 0.00 in0.0 mm 1.00 in25.4 mm
03:00 PM 61.0°F16.1°C 51.9°F11.1°C 72% 4.5 mph W7.2 kmh W 16.1 mph25.9 kmh 29.71 in1006.1 mb 0.00 in0.0 mm 0.00 in0.0 mm 1.00 in25.4 mm
03:10 PM 61.0°F16.1°C 49.9°F9.9°C 67% 6.7 mph WNW10.8 kmh WNW 24.7 mph39.8 kmh 29.74 in1007.1 mb 0.00 in0.0 mm 0.00 in0.0 mm 1.00 in25.4 mm
03:20 PM 61.0°F16.1°C 49.9°F9.9°C 67% 6.5 mph WNW10.5 kmh WNW 15.7 mph25.3 kmh 29.74 in1007.1 mb 0.00 in0.0 mm 0.00 in0.0 mm 1.00 in25.4 mm
03:30 PM 60.6°F15.9°C 48.4°F9.1°C 64% 7.3 mph W11.7 kmh W 17.5 mph28.2 kmh 29.74 in1007.1 mb 0.00 in0.0 mm 0.00 in0.0 mm 1.00 in25.4 mm
03:40 PM 60.4°F15.8°C 48.6°F9.2°C 65% 5.8 mph WNW9.3 kmh WNW 19.3 mph31.1 kmh 29.74 in1007.1 mb 0.00 in0.0 mm 0.00 in0.0 mm 1.00 in25.4 mm
03:50 PM 60.6°F15.9°C 49.2°F9.6°C 66% 4.9 mph WNW7.9 kmh WNW 12.5 mph20.1 kmh 29.74 in1007.1 mb 0.00 in0.0 mm 0.00 in0.0 mm 1.00 in25.4 mm
04:00 PM 60.8°F16.0°C 49.0°F9.4°C 65% 5.5 mph W8.9 kmh W 13.6 mph21.9 kmh 29.74 in1007.1 mb 0.00 in0.0 mm 0.00 in0.0 mm 1.00 in25.4 mm
04:10 PM 61.2°F16.2°C 49.3°F9.6°C 65% 5.8 mph W9.3 kmh W 12.9 mph20.8 kmh 29.77 in1008.1 mb 0.00 in0.0 mm 0.00 in0.0 mm 1.00 in25.4 mm
04:20 PM 61.0°F16.1°C 49.1°F9.5°C 65% 5.6 mph W9.0 kmh W 14.0 mph22.5 kmh 29.77 in1008.1 mb 0.00 in0.0 mm 0.00 in0.0 mm 1.00 in25.4 mm
04:30 PM 60.4°F15.8°C 48.2°F9.0°C 64% 5.9 mph W9.5 kmh W 16.1 mph25.9 kmh 29.77 in1008.1 mb 0.00 in0.0 mm 0.00 in0.0 mm 1.00 in25.4 mm
04:40 PM 59.7°F15.4°C 47.5°F8.6°C 64% 5.8 mph W9.3 kmh W 12.5 mph20.1 kmh 29.77 in1008.1 mb 0.00 in0.0 mm 0.00 in0.0 mm 1.00 in25.4 mm
04:50 PM 59.2°F15.1°C 47.4°F8.6°C 65% 6.4 mph W10.3 kmh W 17.5 mph28.2 kmh 29.77 in1008.1 mb 0.00 in0.0 mm 0.00 in0.0 mm 1.00 in25.4 mm
05:00 PM 58.3°F14.6°C 47.4°F8.6°C 67% 6.9 mph W11.1 kmh W 23.3 mph37.5 kmh 29.80 in1009.1 mb 0.00 in0.0 mm 0.00 in0.0 mm 1.00 in25.4 mm
05:10 PM 57.6°F14.2°C 47.8°F8.8°C 70% 3.6 mph W5.8 kmh W 10.4 mph16.7 kmh 29.77 in1008.1 mb 0.00 in0.0 mm 0.00 in0.0 mm 1.00 in25.4 mm
05:20 PM 56.8°F13.8°C 47.9°F8.8°C 72% 4.5 mph WNW7.2 kmh WNW 10.4 mph16.7 kmh 29.77 in1008.1 mb 0.00 in0.0 mm 0.00 in0.0 mm 1.00 in25.4 mm
05:30 PM 56.7°F13.7°C 48.5°F9.2°C 74% 5.9 mph W9.5 kmh W 17.2 mph27.7 kmh 29.77 in1008.1 mb 0.00 in0.0 mm 0.00 in0.0 mm 1.00 in25.4 mm
05:40 PM 56.5°F13.6°C 48.6°F9.2°C 75% 4.7 mph WNW7.6 kmh WNW 12.2 mph19.6 kmh 29.74 in1007.1 mb 0.00 in0.0 mm 0.00 in0.0 mm 1.00 in25.4 mm
05:50 PM 56.1°F13.4°C 48.7°F9.3°C 76% 6.6 mph W10.6 kmh W 17.2 mph27.7 kmh 29.74 in1007.1 mb 0.06 in1.5 mm 0.36 in9.1 mm 1.06 in26.9 mm
06:00 PM 55.4°F13.0°C 48.0°F8.9°C 76% 4.1 mph W6.6 kmh W 12.2 mph19.6 kmh 29.77 in1008.1 mb 0.06 in1.5 mm 0.00 in0.0 mm 1.06 in26.9 mm
06:10 PM 55.2°F12.9°C 48.1°F8.9°C 77% 4.2 mph W6.8 kmh W 9.7 mph15.6 kmh 29.77 in1008.1 mb 0.06 in1.5 mm 0.00 in0.0 mm 1.06 in26.9 mm
06:20 PM 55.2°F12.9°C 48.5°F9.2°C 78% 5.4 mph W8.7 kmh W 19.7 mph31.7 kmh 29.77 in1008.1 mb 0.06 in1.5 mm 0.00 in0.0 mm 1.06 in26.9 mm
06:30 PM 55.2°F12.9°C 48.5°F9.2°C 78% 5.1 mph W8.2 kmh W 15.4 mph24.8 kmh 29.80 in1009.1 mb 0.06 in1.5 mm 0.00 in0.0 mm 1.06 in26.9 mm
06:40 PM 55.2°F12.9°C 48.5°F9.2°C 78% 5.9 mph WNW9.5 kmh WNW 16.1 mph25.9 kmh 29.80 in1009.1 mb 0.06 in1.5 mm 0.00 in0.0 mm 1.06 in26.9 mm
06:50 PM 55.4°F13.0°C 48.3°F9.1°C 77% 6.4 mph W10.3 kmh W 16.1 mph25.9 kmh 29.80 in1009.1 mb 0.00 in0.0 mm 0.00 in0.0 mm 1.06 in26.9 mm
07:00 PM 55.4°F13.0°C 48.7°F9.3°C 78% 5.7 mph W9.2 kmh W 23.3 mph37.5 kmh 29.80 in1009.1 mb 0.00 in0.0 mm 0.00 in0.0 mm 1.06 in26.9 mm
07:10 PM 54.9°F12.7°C 47.1°F8.4°C 75% 6.6 mph W10.6 kmh W 17.2 mph27.7 kmh 29.80 in1009.1 mb 0.00 in0.0 mm 0.00 in0.0 mm 1.06 in26.9 mm
07:20 PM 55.0°F12.8°C 47.6°F8.7°C 76% 5.1 mph WNW8.2 kmh WNW 11.8 mph19.0 kmh 29.80 in1009.1 mb 0.00 in0.0 mm 0.00 in0.0 mm 1.06 in26.9 mm
07:30 PM 55.2°F12.9°C 48.1°F8.9°C 77% 5.5 mph WNW8.9 kmh WNW 16.5 mph26.6 kmh 29.80 in1009.1 mb 0.00 in0.0 mm 0.00 in0.0 mm 1.06 in26.9 mm
07:40 PM 55.4°F13.0°C 48.3°F9.1°C 77% 7.3 mph W11.7 kmh W 22.5 mph36.2 kmh 29.80 in1009.1 mb 0.00 in0.0 mm 0.00 in0.0 mm 1.06 in26.9 mm
07:50 PM 55.0°F12.8°C 48.0°F8.9°C 77% 4.9 mph W7.9 kmh W 11.8 mph19.0 kmh 29.80 in1009.1 mb 0.04 in1.0 mm 0.24 in6.1 mm 1.09 in27.7 mm
08:00 PM 54.5°F12.5°C 47.8°F8.8°C 78% 2.8 mph W4.5 kmh W 12.2 mph19.6 kmh 29.80 in1009.1 mb 0.04 in1.0 mm 0.00 in0.0 mm 1.09 in27.7 mm
08:10 PM 54.3°F12.4°C 47.9°F8.8°C 79% 2.1 mph W3.4 kmh W 6.8 mph10.9 kmh 29.80 in1009.1 mb 0.04 in1.0 mm 0.00 in0.0 mm 1.09 in27.7 mm
08:20 PM 54.1°F12.3°C 48.1°F8.9°C 80% 4.6 mph WSW7.4 kmh WSW 16.8 mph27.0 kmh 29.80 in1009.1 mb 0.14 in3.6 mm 0.60 in15.2 mm 1.20 in30.5 mm
08:30 PM 54.3°F12.4°C 49.3°F9.6°C 83% 5.0 mph WNW8.0 kmh WNW 15.7 mph25.3 kmh 29.80 in1009.1 mb 0.14 in3.6 mm 0.00 in0.0 mm 1.20 in30.5 mm
08:40 PM 54.3°F12.4°C 49.3°F9.6°C 83% 6.5 mph W10.5 kmh W 17.2 mph27.7 kmh 29.80 in1009.1 mb 0.14 in3.6 mm 0.00 in0.0 mm 1.20 in30.5 mm
08:50 PM 54.5°F12.5°C 49.8°F9.9°C 84% 7.2 mph WNW11.6 kmh WNW 15.0 mph24.1 kmh 29.80 in1009.1 mb 0.10 in2.5 mm 0.00 in0.0 mm 1.20 in30.5 mm
09:00 PM 54.7°F12.6°C 49.9°F9.9°C 84% 6.5 mph W10.5 kmh W 17.5 mph28.2 kmh 29.83 in1010.2 mb 0.10 in2.5 mm 0.00 in0.0 mm 1.20 in30.5 mm
09:10 PM 55.0°F12.8°C 50.0°F10.0°C 83% 9.2 mph W14.8 kmh W 19.3 mph31.1 kmh 29.80 in1009.1 mb 0.10 in2.5 mm 0.00 in0.0 mm 1.20 in30.5 mm
09:20 PM 55.2°F12.9°C 50.1°F10.1°C 83% 8.3 mph WNW13.4 kmh WNW 17.5 mph28.2 kmh 29.80 in1009.1 mb 0.00 in0.0 mm 0.00 in0.0 mm 1.20 in30.5 mm
09:30 PM 55.4°F13.0°C 50.3°F10.2°C 83% 6.2 mph W10.0 kmh W 16.5 mph26.6 kmh 29.83 in1010.2 mb 0.00 in0.0 mm 0.00 in0.0 mm 1.20 in30.5 mm
09:40 PM 55.4°F13.0°C 50.0°F10.0°C 82% 7.4 mph WNW11.9 kmh WNW 16.8 mph27.0 kmh 29.83 in1010.2 mb 0.00 in0.0 mm 0.00 in0.0 mm 1.20 in30.5 mm
09:50 PM 55.6°F13.1°C 50.2°F10.1°C 82% 8.0 mph W12.9 kmh W 17.2 mph27.7 kmh 29.83 in1010.2 mb 0.00 in0.0 mm 0.00 in0.0 mm 1.20 in30.5 mm
10:00 PM 55.9°F13.3°C 50.2°F10.1°C 81% 8.6 mph WNW13.8 kmh WNW 16.5 mph26.6 kmh 29.83 in1010.2 mb 0.00 in0.0 mm 0.00 in0.0 mm 1.20 in30.5 mm
10:10 PM 55.9°F13.3°C 49.5°F9.7°C 79% 8.3 mph WNW13.4 kmh WNW 17.2 mph27.7 kmh 29.80 in1009.1 mb 0.00 in0.0 mm 0.00 in0.0 mm 1.20 in30.5 mm
10:20 PM 55.9°F13.3°C 49.5°F9.7°C 79% 9.0 mph WNW14.5 kmh WNW 21.1 mph34.0 kmh 29.80 in1009.1 mb 0.00 in0.0 mm 0.00 in0.0 mm 1.20 in30.5 mm
10:30 PM 56.1°F13.4°C 49.4°F9.7°C 78% 11.1 mph WNW17.9 kmh WNW 24.7 mph39.8 kmh 29.83 in1010.2 mb 0.00 in0.0 mm 0.00 in0.0 mm 1.20 in30.5 mm
10:40 PM 56.1°F13.4°C 49.0°F9.4°C 77% 10.4 mph W16.7 kmh W 20.4 mph32.8 kmh 29.86 in1011.2 mb 0.00 in0.0 mm 0.00 in0.0 mm 1.20 in30.5 mm
10:50 PM 56.3°F13.5°C 49.2°F9.6°C 77% 8.8 mph WNW14.2 kmh WNW 20.4 mph32.8 kmh 29.86 in1011.2 mb 0.00 in0.0 mm 0.00 in0.0 mm 1.20 in30.5 mm
11:00 PM 56.1°F13.4°C 48.7°F9.3°C 76% 8.7 mph W14.0 kmh W 20.4 mph32.8 kmh 29.86 in1011.2 mb 0.00 in0.0 mm 0.00 in0.0 mm 0.92 in23.4 mm
11:10 PM 56.1°F13.4°C 47.9°F8.8°C 74% 11.8 mph WNW19.0 kmh WNW 22.2 mph35.7 kmh 29.86 in1011.2 mb 0.00 in0.0 mm 0.00 in0.0 mm 0.92 in23.4 mm
11:20 PM 56.1°F13.4°C 47.9°F8.8°C 74% 9.7 mph W15.6 kmh W 24.3 mph39.1 kmh 29.86 in1011.2 mb 0.00 in0.0 mm 0.00 in0.0 mm 0.92 in23.4 mm
11:30 PM 55.9°F13.3°C 47.8°F8.8°C 74% 8.3 mph WNW13.4 kmh WNW 23.3 mph37.5 kmh 29.86 in1011.2 mb 0.00 in0.0 mm 0.00 in0.0 mm 0.92 in23.4 mm
11:40 PM 55.9°F13.3°C 47.4°F8.6°C 73% 9.1 mph W14.6 kmh W 21.1 mph34.0 kmh 29.89 in1012.2 mb 0.00 in0.0 mm 0.00 in0.0 mm 0.92 in23.4 mm
11:50 PM 55.9°F13.3°C 47.4°F8.6°C 73% 7.5 mph WNW12.1 kmh WNW 23.3 mph37.5 kmh 29.89 in1012.2 mb 0.00 in0.0 mm 0.00 in0.0 mm 0.92 in23.4 mm